Terminal Aerodrome Forecast
Issued by NWS

Home | Current Version | Previous Version | Graphics & Text | Print | Product List | Glossary On
Versions: 1 2 3 4 5 6 7 8 9 10 11 12 13 14 15 16 17 18 19 20
000
FTUS43 KGRB 242110 AAA
TAFMTW
TAF AMD
KMTW 242110Z 2421/2518 01008KT 4SM -RA BR OVC008
     FM250000 03012KT 2SM RA OVC008
     FM250700 03013G22KT 4SM RA OVC005
     FM251300 05014G23KT 4SM -RA OVC005=

USA.gov is the U.S. government's official web portal to all federal, state and local government web resources and services.